Time;durP1;ratioP1;P1;durP2;ratioP2;P2;SDS_P1;SDS_P2;PMS_P1;PMS_P2;Temp;Humidity;BMP_temperature;BMP_pressure;BME280_temperature;BME280_humidity;BME280_pressure;Samples;Min_cycle;Max_cycle;Signal;HPM_P1;HPM_P2
2022/12/07 00:00:34;;;;;;;3.27;3.07;;;5.50;99.90;4.80;101666.00;;;;5077284;28;20205;-68
2022/12/07 00:03:00;;;;;;;1.83;1.73;;;5.40;99.90;5.00;101649.00;;;;5085384;28;20227;-69
2022/12/07 00:05:29;;;;;;;2.33;2.13;;;5.50;99.90;4.70;101651.00;;;;5074649;28;20208;-68
2022/12/07 00:07:55;;;;;;;2.70;2.53;;;5.40;99.90;4.70;101641.00;;;;5075828;28;20181;-68
2022/12/07 00:10:29;;;;;;;0.73;0.73;;;5.30;99.90;4.60;101658.00;;;;5107897;28;20552;-68
2022/12/07 00:12:58;;;;;;;5.03;4.70;;;5.30;99.90;4.60;101662.00;;;;5078687;28;20207;-68
2022/12/07 00:15:27;;;;;;;3.57;3.23;;;5.30;99.90;4.70;101650.00;;;;5077051;28;20628;-68
2022/12/07 00:17:53;;;;;;;2.23;1.83;;;5.30;99.90;4.40;101618.00;;;;5077510;28;20176;-68
2022/12/07 00:20:19;;;;;;;2.53;2.43;;;5.20;99.90;4.70;101637.00;;;;5073481;28;20198;-68
2022/12/07 00:22:44;;;;;;;4.17;3.63;;;5.30;99.90;4.70;101639.00;;;;5091296;28;20193;-68
2022/12/07 00:25:10;;;;;;;3.47;3.17;;;5.30;99.90;4.90;101631.00;;;;5084253;28;20182;-68
2022/12/07 00:27:39;;;;;;;0.53;0.53;;;5.40;99.90;5.00;101645.00;;;;5058975;28;20193;-68
2022/12/07 00:30:06;;;;;;;5.07;4.60;;;5.40;99.90;4.80;101640.00;;;;5058622;28;20192;-68
2022/12/07 00:32:35;;;;;;;1.37;1.13;;;5.30;99.90;5.10;101645.00;;;;5090172;28;20238;-68
2022/12/07 00:35:08;;;;;;;0.53;0.53;;;5.50;99.90;5.40;101624.00;;;;5094338;28;20183;-68
2022/12/07 00:37:40;;;;;;;0.23;0.23;;;5.60;99.90;5.60;101643.00;;;;5072877;28;20249;-68
2022/12/07 00:40:11;;;;;;;0.43;0.43;;;5.70;99.90;5.20;101616.00;;;;5106504;28;20181;-68
2022/12/07 00:42:37;;;;;;;0.43;0.43;;;5.70;99.90;5.50;101642.00;;;;5068111;28;20213;-68
2022/12/07 00:45:04;;;;;;;0.93;0.93;;;5.70;99.90;5.80;101647.00;;;;5094726;28;20272;-68
2022/12/07 00:47:33;;;;;;;0.30;0.30;;;5.90;99.90;6.00;101645.00;;;;5094433;28;20197;-68
2022/12/07 00:49:59;;;;;;;1.17;1.17;;;6.00;99.90;6.20;101597.00;;;;5076671;28;20181;-69
2022/12/07 00:52:28;;;;;;;0.97;0.97;;;6.20;99.90;6.00;101653.00;;;;5093199;28;20203;-68
2022/12/07 00:54:57;;;;;;;2.13;2.00;;;6.20;99.90;5.80;101624.00;;;;5093336;28;20187;-68
2022/12/07 00:57:28;;;;;;;6.33;3.30;;;6.20;99.90;5.90;101637.00;;;;5075963;28;20182;-69
2022/12/07 00:59:57;;;;;;;2.23;2.13;;;6.20;99.90;5.70;101635.00;;;;5076594;28;20181;-69
2022/12/07 01:02:32;;;;;;;4.20;2.33;;;6.10;99.90;5.10;101626.00;;;;5075648;28;20196;-69
2022/12/07 01:05:24;;;;;;;1.23;1.17;;;5.80;99.90;5.20;101631.00;;;;5073881;28;20178;-69
2022/12/07 01:08:10;;;;;;;0.60;0.60;;;5.70;99.90;5.50;101632.00;;;;5060480;28;20195;-70
2022/12/07 01:11:08;;;;;;;2.63;2.47;;;5.80;99.90;5.20;101641.00;;;;5075129;28;20202;-70
2022/12/07 01:13:47;;;;;;;0.40;0.40;;;5.80;99.90;5.10;101638.00;;;;5075676;28;20243;-69
2022/12/07 01:16:42;;;;;;;0.20;0.20;;;5.70;99.90;5.30;101573.00;;;;5075036;28;20207;-69
2022/12/07 01:20:00;;;;;;;1.60;1.50;;;5.80;99.90;5.20;101633.00;;;;5070776;28;20188;-70
2022/12/07 01:22:51;;;;;;;0.40;0.40;;;5.70;99.90;5.70;101650.00;;;;5071175;28;20195;-69
2022/12/07 01:26:03;;;;;;;0.33;0.33;;;6.00;99.90;5.90;101648.00;;;;5090061;28;20186;-69
2022/12/07 01:28:37;;;;;;;1.67;1.57;;;6.00;99.90;5.20;101622.00;;;;5073930;28;20225;-69
2022/12/07 01:31:25;;;;;;;5.30;2.87;;;5.90;99.90;5.20;101619.00;;;;5055849;28;20731;-67
2022/12/07 01:34:49;;;;;;;5.30;1.63;;;5.80;99.90;5.40;101642.00;;;;5062380;28;20191;-67
2022/12/07 01:37:51;;;;;;;2.97;2.73;;;5.80;99.90;5.10;101629.00;;;;5092774;28;20197;-68
2022/12/07 01:40:22;;;;;;;0.20;0.20;;;5.70;99.90;5.10;101633.00;;;;5086360;28;20180;-68
2022/12/07 01:42:48;;;;;;;3.67;2.00;;;5.70;99.90;5.60;101650.00;;;;5073936;28;20211;-68
2022/12/07 01:45:39;;;;;;;2.13;2.03;;;5.90;99.90;5.70;101648.00;;;;5093314;28;20212;-68
2022/12/07 01:48:12;;;;;;;3.40;2.60;;;6.00;99.90;5.70;101620.00;;;;5091846;28;20184;-68
2022/12/07 01:50:48;;;;;;;0.50;0.50;;;6.00;99.90;5.40;101631.00;;;;5075453;28;20188;-68
2022/12/07 01:53:25;;;;;;;1.87;1.77;;;5.90;99.90;5.40;101643.00;;;;5075573;28;20295;-68
2022/12/07 01:56:23;;;;;;;1.70;1.60;;;5.80;99.90;5.20;101581.00;;;;5074236;28;20544;-68
2022/12/07 01:58:58;;;;;;;0.23;0.23;;;5.80;99.90;5.30;101640.00;;;;5095411;28;20184;-68
2022/12/07 02:02:10;;;;;;;0.40;0.40;;;5.70;99.90;5.10;101634.00;;;;5058697;28;20198;-68
2022/12/07 02:05:05;;;;;;;2.30;2.10;;;5.70;99.90;5.50;101629.00;;;;5052405;28;20195;-68
2022/12/07 02:07:55;;;;;;;0.27;0.27;;;5.90;99.90;5.30;101635.00;;;;5066341;28;20187;-68
2022/12/07 02:10:54;;;;;;;0.40;0.40;;;5.70;99.90;5.40;101630.00;;;;5057997;28;20648;-68
2022/12/07 02:13:51;;;;;;;0.67;0.67;;;5.80;99.90;5.20;101635.00;;;;5108734;28;20224;-68
2022/12/07 02:16:34;;;;;;;0.63;0.63;;;5.80;99.90;5.30;101638.00;;;;5057476;28;20194;-68
2022/12/07 02:19:39;;;;;;;1.03;1.03;;;5.70;99.90;5.40;101575.00;;;;5081004;28;20689;-69
2022/12/07 02:23:02;;;;;;;0.57;0.57;;;5.70;99.90;5.80;101586.00;;;;5067536;28;20218;-68
2022/12/07 02:26:03;;;;;;;1.20;1.10;;;5.90;99.90;5.70;101645.00;;;;5056576;28;20198;-68
2022/12/07 02:29:13;;;;;;;0.40;0.40;;;6.00;99.90;5.50;101636.00;;;;5069207;28;20189;-68
2022/12/07 02:32:22;;;;;;;3.60;2.83;;;6.00;99.90;5.50;101631.00;;;;5089057;28;20724;-68
2022/12/07 02:35:46;;;;;;;3.23;1.83;;;5.90;99.90;5.50;101624.00;;;;5071173;28;20194;-68
2022/12/07 02:38:39;;;;;;;0.83;0.83;;;5.80;99.90;5.30;101634.00;;;;5073040;28;20277;-68
2022/12/07 02:41:35;;;;;;;1.00;1.00;;;5.80;99.90;5.70;101627.00;;;;5012446;28;20200;-68
2022/12/07 02:44:19;;;;;;;2.07;1.93;;;6.00;99.90;5.60;101630.00;;;;5023580;28;20196;-68
2022/12/07 02:47:07;;;;;;;1.33;1.23;;;5.90;99.90;5.40;101612.00;;;;5096665;28;20606;-68
2022/12/07 02:49:44;;;;;;;0.70;0.70;;;5.90;99.90;5.60;101618.00;;;;5073902;28;20171;-68
2022/12/07 02:52:35;;;;;;;1.73;1.03;;;6.00;99.90;5.60;101629.00;;;;5091744;28;20281;-68
2022/12/07 02:55:30;;;;;;;4.37;2.20;;;5.90;99.90;5.20;101623.00;;;;5083132;28;20256;-68
2022/12/07 02:58:46;;;;;;;0.30;0.30;;;5.90;99.90;5.50;101572.00;;;;5096012;28;20189;-68
2022/12/07 03:01:42;;;;;;;1.73;1.60;;;5.90;99.90;5.50;101574.00;;;;5086793;28;20523;-68
2022/12/07 03:04:52;;;;;;;0.90;0.90;;;5.90;99.90;5.90;101624.00;;;;5090831;28;20178;-68
2022/12/07 03:08:14;;;;;;;1.67;1.57;;;6.00;99.90;6.20;101622.00;;;;5063713;28;20192;-68
2022/12/07 03:11:05;;;;;;;5.23;1.10;;;6.20;99.90;6.20;101579.00;;;;4975046;28;20693;-68
2022/12/07 03:13:49;;;;;;;1.23;1.23;;;6.40;99.90;6.30;101605.00;;;;4989374;28;20191;-68
2022/12/07 03:16:57;;;;;;;6.43;5.43;;;6.40;99.90;5.80;101588.00;;;;4990806;28;20191;-68
2022/12/07 03:19:57;;;;;;;3.70;1.83;;;6.30;99.90;5.70;101594.00;;;;5009440;28;20738;-68
2022/12/07 03:22:34;;;;;;;1.47;1.37;;;6.20;99.90;5.10;101597.00;;;;4963045;28;20206;-68
2022/12/07 03:25:40;;;;;;;0.60;0.60;;;5.80;99.90;4.70;101607.00;;;;4985218;28;20204;-68
2022/12/07 03:28:49;;;;;;;0.80;0.80;;;5.60;99.90;5.00;101599.00;;;;4968271;28;20377;-68
2022/12/07 03:31:38;;;;;;;0.80;0.80;;;5.60;99.90;5.10;101598.00;;;;4973918;28;20205;-68
2022/12/07 03:34:55;;;;;;;0.20;0.20;;;5.70;99.90;5.70;101597.00;;;;5009114;28;20294;-68
2022/12/07 03:37:41;;;;;;;0.30;0.30;;;5.80;99.90;5.80;101623.00;;;;4936370;29;20204;-68
2022/12/07 03:40:36;;;;;;;0.30;0.30;;;6.10;99.90;6.10;101609.00;;;;4940137;28;20197;-68
2022/12/07 03:43:28;;;;;;;2.67;2.43;;;6.20;99.90;5.40;101551.00;;;;4982852;28;20194;-68
2022/12/07 03:46:21;;;;;;;3.60;1.10;;;5.80;99.90;5.20;101605.00;;;;5060784;28;20189;-68
2022/12/07 03:49:21;;;;;;;1.73;1.63;;;5.80;99.90;5.20;101602.00;;;;5087922;28;20197;-68
2022/12/07 03:52:26;;;;;;;1.07;0.77;;;5.70;99.90;5.30;101604.00;;;;5067039;28;20249;-68
2022/12/07 03:55:37;;;;;;;0.53;0.53;;;5.70;99.90;5.80;101605.00;;;;5085446;28;20600;-68
2022/12/07 03:58:33;;;;;;;0.20;0.20;;;5.80;99.90;6.00;101559.00;;;;5076691;28;20537;-68
2022/12/07 04:01:10;;;;;;;0.70;0.70;;;6.10;99.90;5.30;101580.00;;;;5111034;28;20215;-68
2022/12/07 04:03:54;;;;;;;0.53;0.53;;;5.90;99.90;5.00;101591.00;;;;5077297;28;20195;-68
2022/12/07 04:06:33;;;;;;;0.63;0.63;;;5.70;99.90;4.90;101568.00;;;;5066341;28;20177;-68
2022/12/07 04:09:20;;;;;;;0.23;0.23;;;5.50;99.90;5.10;101584.00;;;;5072942;28;20264;-68
2022/12/07 04:12:15;;;;;;;0.97;0.97;;;5.50;99.90;5.10;101598.00;;;;5060413;28;20210;-68
2022/12/07 04:15:02;;;;;;;0.40;0.40;;;5.60;99.90;4.90;101605.00;;;;5077328;28;20222;-67
2022/12/07 04:17:54;;;;;;;0.30;0.30;;;5.50;99.90;4.70;101602.00;;;;5071271;28;20198;-68
2022/12/07 04:21:03;;;;;;;0.30;0.30;;;5.30;99.90;4.80;101595.00;;;;5076682;28;20222;-68
2022/12/07 04:23:54;;;;;;;0.77;0.67;;;5.30;99.90;5.60;101545.00;;;;5074987;28;20230;-68
2022/12/07 04:26:26;;;;;;;0.93;0.93;;;5.60;99.90;5.50;101600.00;;;;5067878;28;20207;-68
2022/12/07 04:29:12;;;;;;;0.30;0.30;;;5.60;99.90;5.20;101595.00;;;;5100618;28;20257;-68
2022/12/07 04:32:06;;;;;;;0.30;0.30;;;5.60;99.90;5.10;101589.00;;;;5090050;28;20279;-68
2022/12/07 04:35:09;;;;;;;0.40;0.40;;;5.60;99.90;5.30;101592.00;;;;5059514;28;20416;-68
2022/12/07 04:37:56;;;;;;;0.30;0.30;;;5.40;99.90;5.50;101595.00;;;;5076357;28;20270;-68
2022/12/07 04:40:47;;;;;;;0.30;0.30;;;5.60;99.90;5.70;101583.00;;;;5076754;28;20190;-68
2022/12/07 04:43:42;;;;;;;0.50;0.50;;;5.70;99.90;5.60;101591.00;;;;4992105;28;20227;-68
2022/12/07 04:46:38;;;;;;;0.30;0.30;;;5.70;99.90;5.20;101583.00;;;;5076541;28;20654;-69
2022/12/07 04:49:18;;;;;;;0.67;0.67;;;5.60;99.90;5.90;101592.00;;;;5063982;28;20195;-68
2022/12/07 04:52:01;;;;;;;0.30;0.30;;;5.90;99.90;6.10;101583.00;;;;5075189;28;20205;-68
2022/12/07 04:54:43;;;;;;;3.57;1.73;;;6.10;99.90;6.20;101591.00;;;;5076628;28;20186;-68
2022/12/07 04:57:18;;;;;;;0.53;0.53;;;6.20;99.90;5.50;101523.00;;;;5059475;28;20270;-68
2022/12/07 04:59:51;;;;;;;0.30;0.30;;;5.90;99.90;5.60;101589.00;;;;5075053;28;20182;-68
2022/12/07 05:02:29;;;;;;;0.30;0.30;;;5.80;99.90;6.00;101523.00;;;;5075064;28;20194;-68
2022/12/07 05:05:06;;;;;;;1.07;1.07;;;6.00;99.90;5.90;101523.00;;;;5076156;28;20182;-68
2022/12/07 05:07:35;;;;;;;0.47;0.47;;;6.10;99.90;5.90;101585.00;;;;5092739;28;20174;-68
2022/12/07 05:10:10;;;;;;;0.30;0.30;;;6.10;99.90;5.70;101586.00;;;;5072797;28;20265;-68
2022/12/07 05:12:41;;;;;;;0.90;0.90;;;6.00;99.90;5.80;101569.00;;;;5090600;28;20339;-68
2022/12/07 05:15:18;;;;;;;0.63;0.63;;;6.00;99.90;5.50;101560.00;;;;5076133;28;20702;-68
2022/12/07 05:17:52;;;;;;;0.67;0.57;;;5.90;99.90;5.30;101571.00;;;;5076109;28;20174;-68
2022/12/07 05:20:29;;;;;;;0.70;0.70;;;5.80;99.90;4.90;101551.00;;;;5075647;28;20529;-68
2022/12/07 05:23:03;;;;;;;0.30;0.30;;;5.60;99.90;5.10;101566.00;;;;5075602;28;20247;-68
2022/12/07 05:25:38;;;;;;;0.53;0.53;;;5.50;99.90;5.70;101582.00;;;;5092758;28;20189;-68
2022/12/07 05:28:12;;;;;;;0.30;0.30;;;5.70;99.90;5.50;101568.00;;;;5078199;28;20778;-68
2022/12/07 05:30:41;;;;;;;0.30;0.30;;;5.70;99.90;5.80;101572.00;;;;5075714;28;20202;-68
2022/12/07 05:33:20;;;;;;;0.40;0.40;;;5.80;99.90;6.10;101559.00;;;;5054752;28;20220;-68
2022/12/07 05:36:07;;;;;;;0.40;0.40;;;6.00;99.90;6.40;101560.00;;;;5092326;28;20680;-68
2022/12/07 05:38:43;;;;;;;0.40;0.40;;;6.20;99.90;6.10;101565.00;;;;5075198;28;20249;-69
2022/12/07 05:44:29;;;;;;;0.40;0.40;;;6.10;99.90;5.90;101558.00;;;;5092935;28;20315;-68
2022/12/07 05:47:13;;;;;;;0.40;0.40;;;6.10;99.90;5.60;101515.00;;;;5017064;28;20568;-68
2022/12/07 05:50:22;;;;;;;0.60;0.60;;;6.00;99.90;5.10;101551.00;;;;5074300;28;20665;-68
2022/12/07 05:53:15;;;;;;;0.30;0.30;;;5.70;99.90;5.00;101559.00;;;;5090570;28;20225;-68
2022/12/07 05:56:07;;;;;;;0.50;0.50;;;5.50;99.90;5.10;101565.00;;;;5058979;28;20200;-69
2022/12/07 06:02:18;;;;;;;1.63;1.53;;;5.70;99.90;5.40;101559.00;;;;5077727;28;20197;-69
2022/12/07 06:05:27;;;;;;;0.50;0.50;;;5.70;99.90;6.30;101563.00;;;;5085772;28;20195;-69
2022/12/07 06:08:14;;;;;;;0.53;0.53;;;6.10;99.90;5.70;101567.00;;;;5075835;28;20186;-69
2022/12/07 06:12:33;;;;;;;0.87;0.87;;;6.00;99.90;5.90;101559.00;;;;5087755;28;20195;-68
2022/12/07 06:13:44;;;;;;;0.50;0.50;;;6.00;99.90;6.00;101555.00;;;;5078008;28;20203;-69
2022/12/07 06:16:15;;;;;;;0.50;0.50;;;6.00;99.90;5.70;101567.00;;;;5087286;28;20186;-68
2022/12/07 06:18:47;;;;;;;3.07;2.87;;;6.00;99.90;5.40;101566.00;;;;5074681;28;20190;-69
2022/12/07 06:21:18;;;;;;;0.60;0.60;;;5.80;99.90;5.80;101572.00;;;;5074554;28;20182;-69
2022/12/07 06:24:08;;;;;;;0.60;0.60;;;5.90;99.90;6.00;101575.00;;;;5075132;28;20183;-69
2022/12/07 06:27:04;;;;;;;0.60;0.60;;;6.00;99.90;5.20;101575.00;;;;5074741;28;20694;-68
2022/12/07 06:29:56;;;;;;;0.63;0.63;;;5.80;99.90;5.60;101514.00;;;;5074321;28;20874;-68
2022/12/07 06:32:39;;;;;;;0.77;0.77;;;5.70;99.90;6.10;101581.00;;;;5072729;28;20221;-68
2022/12/07 06:35:31;;;;;;;1.57;1.47;;;5.90;99.90;6.40;101588.00;;;;5075111;28;20191;-69
2022/12/07 06:38:08;;;;;;;0.60;0.60;;;6.20;99.90;6.30;101566.00;;;;5075657;28;20657;-69
2022/12/07 06:40:45;;;;;;;0.83;0.83;;;6.40;99.90;5.90;101569.00;;;;5090260;28;20190;-69
2022/12/07 06:43:19;;;;;;;1.80;1.33;;;6.20;99.90;5.10;101572.00;;;;5087131;28;20190;-69
2022/12/07 06:45:56;;;;;;;1.43;1.40;;;5.80;99.90;5.60;101578.00;;;;5084212;28;20257;-68
2022/12/07 06:48:35;;;;;;;0.70;0.70;;;5.80;99.90;5.40;101565.00;;;;5074710;28;20951;-68
2022/12/07 06:51:06;;;;;;;0.40;0.40;;;5.80;99.90;5.00;101564.00;;;;5074151;28;20184;-69
2022/12/07 06:53:35;;;;;;;0.53;0.53;;;5.60;99.90;5.40;101575.00;;;;5075132;28;20255;-68
2022/12/07 06:56:19;;;;;;;0.40;0.40;;;5.70;99.90;5.00;101570.00;;;;5078884;28;20192;-68
2022/12/07 06:58:53;;;;;;;0.40;0.40;;;5.50;99.90;5.10;101569.00;;;;5106890;28;20215;-69
2022/12/07 07:01:25;;;;;;;5.00;4.33;;;5.50;99.90;4.60;101574.00;;;;5078182;28;20200;-69
2022/12/07 07:04:08;;;;;;;0.40;0.40;;;5.30;99.90;4.60;101575.00;;;;5096953;28;20191;-69
2022/12/07 07:07:02;;;;;;;1.20;1.17;;;5.20;99.90;4.70;101577.00;;;;5107397;28;20191;-69
2022/12/07 07:10:00;;;;;;;0.40;0.40;;;5.20;99.90;5.00;101563.00;;;;5095997;28;20187;-69
2022/12/07 07:12:54;;;;;;;2.67;1.47;;;5.20;99.90;4.70;101566.00;;;;5077016;28;20223;-69
2022/12/07 07:15:32;;;;;;;0.40;0.40;;;5.20;99.90;4.90;101578.00;;;;5057729;28;20290;-69
2022/12/07 07:18:03;;;;;;;0.87;0.87;;;5.20;99.90;5.00;101563.00;;;;5095773;28;20204;-69
2022/12/07 07:20:34;;;;;;;0.50;0.50;;;5.30;99.90;4.50;101573.00;;;;5078696;28;20179;-69
2022/12/07 07:23:29;;;;;;;1.43;1.33;;;5.10;99.90;4.90;101579.00;;;;5091895;28;20219;-69
2022/12/07 07:26:18;;;;;;;1.03;1.03;;;5.10;99.90;5.10;101573.00;;;;5088431;28;20232;-69
2022/12/07 07:29:06;;;;;;;0.80;0.80;;;5.30;99.90;4.60;101560.00;;;;5078286;28;20692;-70
2022/12/07 07:31:54;;;;;;;0.50;0.50;;;5.10;99.90;4.90;101581.00;;;;5076235;28;20579;-69
2022/12/07 07:34:26;;;;;;;0.40;0.40;;;5.10;99.90;5.20;101566.00;;;;5085314;28;20190;-70
2022/12/07 07:37:03;;;;;;;0.87;0.73;;;5.40;99.90;4.70;101572.00;;;;5095857;28;20187;-69
2022/12/07 07:40:07;;;;;;;1.67;1.57;;;5.30;99.90;4.90;101587.00;;;;5077914;28;20190;-69
2022/12/07 07:43:16;;;;;;;6.80;2.43;;;5.20;99.90;4.90;101579.00;;;;5088340;28;20205;-69
2022/12/07 07:46:05;;;;;;;1.20;1.10;;;5.30;99.90;4.90;101565.00;;;;5075238;28;20258;-69
2022/12/07 07:48:39;;;;;;;2.73;2.63;;;5.30;99.90;4.90;101571.00;;;;5067778;28;20650;-70
2022/12/07 07:51:13;;;;;;;0.77;0.77;;;5.30;99.90;4.90;101531.00;;;;5076435;28;20488;-69
2022/12/07 07:53:55;;;;;;;1.53;1.23;;;5.40;99.90;5.20;101589.00;;;;5077409;28;20677;-69
2022/12/07 07:56:53;;;;;;;1.37;1.27;;;5.50;99.90;5.10;101575.00;;;;5077572;28;20237;-69
2022/12/07 07:59:57;;;;;;;0.63;0.63;;;5.60;99.90;4.60;101564.00;;;;5077623;28;20320;-70
2022/12/07 08:02:34;;;;;;;1.63;1.53;;;5.40;99.90;4.50;101564.00;;;;5088624;28;20204;-69
2022/12/07 08:05:22;;;;;;;0.80;0.80;;;5.20;99.90;4.60;101572.00;;;;5080195;28;20209;-68
2022/12/07 08:07:54;;;;;;;0.93;0.90;;;5.30;99.90;5.00;101606.00;;;;5090848;28;20274;-68
2022/12/07 08:10:25;;;;;;;0.30;0.30;;;5.40;99.90;5.20;101560.00;;;;5067545;28;20556;-68
2022/12/07 08:15:42;;;;;;;1.63;1.53;;;5.80;99.90;5.60;101618.00;;;;5079835;28;20202;-69
2022/12/07 08:18:08;;;;;;;0.30;0.30;;;5.90;99.90;6.00;101624.00;;;;5074882;28;20590;-68
2022/12/07 08:20:39;;;;;;;0.30;0.30;;;6.10;99.90;6.20;101618.00;;;;5077344;28;20201;-68
2022/12/07 08:23:11;;;;;;;0.40;0.40;;;6.30;99.90;6.50;101617.00;;;;5077345;28;20190;-69
2022/12/07 08:25:44;;;;;;;0.40;0.40;;;6.50;99.90;6.10;101616.00;;;;5067121;28;20190;-69
2022/12/07 08:28:36;;;;;;;1.57;1.27;;;6.50;99.90;5.30;101606.00;;;;5061234;28;20194;-69
2022/12/07 08:31:06;;;;;;;2.20;1.97;;;6.00;99.90;5.30;101614.00;;;;5045908;28;20209;-68
2022/12/07 08:33:35;;;;;;;1.80;1.70;;;5.80;99.90;4.90;101603.00;;;;5076571;28;20210;-68
2022/12/07 08:36:04;;;;;;;2.20;1.27;;;5.70;99.90;4.90;101612.00;;;;5101627;28;20214;-68
2022/12/07 08:38:31;;;;;;;1.90;1.07;;;5.50;99.90;5.10;101557.00;;;;5094793;28;20657;-68
2022/12/07 08:41:05;;;;;;;1.20;1.10;;;5.60;99.90;5.50;101623.00;;;;5076508;28;20198;-68
2022/12/07 08:43:32;;;;;;;0.93;0.87;;;5.80;99.90;5.70;101626.00;;;;5071861;28;20186;-68
2022/12/07 08:47:04;;;;;;;0.30;0.30;;;5.90;99.90;6.10;101622.00;;;;5076355;28;20650;-68
2022/12/07 08:49:41;;;;;;;0.30;0.30;;;6.10;99.90;6.00;101613.00;;;;5015009;28;20248;-68
2022/12/07 08:52:08;;;;;;;0.57;0.57;;;6.20;99.90;6.70;101607.00;;;;5083205;28;20224;-62
2022/12/07 08:54:38;;;;;;;1.23;1.23;;;6.60;99.90;5.70;101602.00;;;;5076947;28;20192;-70
2022/12/07 08:57:06;;;;;;;0.97;0.97;;;6.30;99.90;5.70;101599.00;;;;5093460;28;20192;-70
2022/12/07 08:59:35;;;;;;;0.37;0.37;;;6.10;99.90;6.10;101595.00;;;;5056617;28;20187;-70
2022/12/07 09:02:01;;;;;;;0.40;0.40;;;6.40;99.90;6.00;101591.00;;;;5106573;28;20204;-70
2022/12/07 09:04:27;;;;;;;1.77;1.67;;;6.30;99.90;5.80;101596.00;;;;5076862;28;20200;-70
2022/12/07 09:06:54;;;;;;;0.50;0.50;;;6.20;99.90;5.80;101593.00;;;;5076240;28;20234;-70
2022/12/07 09:09:20;;;;;;;0.97;0.97;;;6.20;99.90;5.90;101603.00;;;;5076472;28;20233;-70
2022/12/07 09:11:46;;;;;;;1.77;1.63;;;6.20;99.90;5.40;101598.00;;;;5090078;28;20297;-70
2022/12/07 09:14:13;;;;;;;0.43;0.43;;;6.10;99.90;5.90;101589.00;;;;5097790;28;20217;-70
2022/12/07 09:16:39;;;;;;;0.30;0.30;;;6.20;99.90;5.40;101586.00;;;;5075201;28;20193;-70
2022/12/07 09:19:10;;;;;;;0.50;0.50;;;6.00;99.90;5.30;101594.00;;;;5087883;28;20195;-70
2022/12/07 09:21:39;;;;;;;0.30;0.30;;;5.90;99.90;5.00;101542.00;;;;5076781;28;20206;-70
2022/12/07 09:24:06;;;;;;;0.60;0.60;;;5.80;99.90;5.00;101572.00;;;;5093577;28;20200;-65
2022/12/07 09:26:31;;;;;;;1.70;1.60;;;5.70;99.90;5.10;101603.00;;;;5075701;28;20216;-72
2022/12/07 09:29:01;;;;;;;0.67;0.67;;;5.70;99.90;5.30;101595.00;;;;5075777;28;20632;-72
2022/12/07 09:31:27;;;;;;;1.23;1.13;;;5.90;99.90;5.20;101604.00;;;;5076154;28;20556;-72
2022/12/07 09:34:05;;;;;;;8.50;4.47;;;5.90;99.90;5.20;101559.00;;;;5074971;28;20203;-72
2022/12/07 09:36:31;;;;;;;1.67;1.57;;;5.80;99.90;4.90;101612.00;;;;5075029;28;20267;-72
2022/12/07 09:39:17;;;;;;;2.40;2.20;;;5.70;99.90;5.10;101591.00;;;;5055557;28;20197;-72
2022/12/07 09:41:47;;;;;;;0.50;0.50;;;5.80;99.90;5.10;101618.00;;;;5086743;28;20187;-72
2022/12/07 09:44:28;;;;;;;1.90;1.73;;;5.80;99.90;5.10;101604.00;;;;5072914;28;20725;-71
2022/12/07 09:46:59;;;;;;;0.20;0.20;;;5.80;99.90;5.50;101561.00;;;;5074624;28;20243;-72
2022/12/07 09:49:31;;;;;;;5.70;3.43;;;5.90;99.90;6.00;101615.00;;;;5092689;28;20185;-72
2022/12/07 09:52:11;;;;;;;1.17;1.17;;;6.20;99.90;5.90;101566.00;;;;5075479;28;20207;-72
2022/12/07 09:54:50;;;;;;;7.17;6.50;;;6.30;99.90;6.20;101605.00;;;;5087822;28;20647;-72
2022/12/07 09:57:21;;;;;;;0.57;0.57;;;6.40;99.90;5.80;101571.00;;;;5058409;28;20189;-72
2022/12/07 09:59:47;;;;;;;1.37;1.37;;;6.40;99.90;6.40;101583.00;;;;5075138;28;20177;-72
2022/12/07 10:02:38;;;;;;;0.93;0.93;;;6.60;99.90;6.00;101594.00;;;;5075625;28;20287;-72
2022/12/07 10:05:19;;;;;;;1.27;1.17;;;6.60;99.90;5.70;101599.00;;;;5085476;28;20184;-72
2022/12/07 10:07:45;;;;;;;0.60;0.60;;;6.40;99.90;6.20;101590.00;;;;5088269;28;20189;-72
2022/12/07 10:10:24;;;;;;;3.70;3.40;;;6.60;99.90;6.60;101601.00;;;;5085596;28;20516;-71
2022/12/07 10:13:11;;;;;;;2.93;1.80;;;7.00;99.90;6.70;101597.00;;;;5075374;28;20231;-73
2022/12/07 10:15:52;;;;;;;2.10;1.90;;;7.20;99.90;6.80;101564.00;;;;5061067;28;20664;-73
2022/12/07 10:18:41;;;;;;;1.70;1.70;;;7.30;99.90;6.50;101591.00;;;;5074359;28;20181;-68
2022/12/07 10:33:38;;;;;;;1.20;1.20;;;6.60;99.90;6.00;101568.00;;;;5085543;28;20633;-65
2022/12/07 10:36:21;;;;;;;3.77;1.70;;;6.80;99.90;6.80;101570.00;;;;5057439;28;20809;-68
2022/12/07 10:39:01;;;;;;;0.20;0.20;;;7.30;99.90;7.90;101566.00;;;;5056152;28;20174;-69
2022/12/07 10:41:30;;;;;;;0.20;0.20;;;7.90;99.90;8.60;101571.00;;;;5047783;28;20202;-66
2022/12/07 10:44:00;;;;;;;0.30;0.30;;;8.50;99.90;9.00;101575.00;;;;5048494;28;20188;-70
2022/12/07 10:47:26;;;;;;;1.83;0.83;;;8.90;99.90;8.60;101568.00;;;;5047345;28;20183;-71
2022/12/07 10:50:22;;;;;;;0.30;0.30;;;9.00;99.90;8.50;101563.00;;;;5047203;28;20226;-71
2022/12/07 10:53:10;;;;;;;0.60;0.60;;;8.90;99.90;8.50;101524.00;;;;5049527;28;20201;-66
2022/12/07 10:56:05;;;;;;;0.40;0.40;;;8.70;99.90;8.90;101542.00;;;;5050307;28;20197;-68
2022/12/07 10:59:07;;;;;;;0.40;0.40;;;8.80;99.90;9.00;101551.00;;;;5046751;28;20191;-68
2022/12/07 11:02:15;;;;;;;0.30;0.30;;;8.90;99.90;9.60;101535.00;;;;5045350;28;20393;-67
2022/12/07 11:05:24;;;;;;;0.80;0.77;;;9.20;99.90;8.30;101488.00;;;;5045430;28;20183;-69
2022/12/07 11:08:40;;;;;;;1.43;1.33;;;8.90;99.90;8.00;101528.00;;;;5038890;28;20279;-70
2022/12/07 11:11:16;;;;;;;1.13;1.03;;;8.40;99.90;7.90;101527.00;;;;5044733;28;20186;-63
2022/12/07 11:14:25;;;;;;;0.83;0.83;;;8.40;99.90;7.80;101509.00;;;;5051596;28;20182;-70
2022/12/07 11:17:19;;;;;;;1.30;1.20;;;8.20;99.90;8.00;101504.00;;;;5046311;28;20705;-65
2022/12/07 11:20:42;;;;;;;1.87;1.17;;;8.40;99.90;7.20;101520.00;;;;5045504;28;20179;-66
2022/12/07 11:23:37;;;;;;;0.90;0.77;;;8.00;99.90;7.90;101514.00;;;;5046360;28;20190;-68
2022/12/07 11:26:22;;;;;;;1.90;1.80;;;8.30;99.90;7.40;101504.00;;;;5046278;28;20183;-67
2022/12/07 11:29:44;;;;;;;0.30;0.30;;;8.10;99.90;7.00;101498.00;;;;5049159;28;20183;-67
2022/12/07 11:32:41;;;;;;;0.30;0.30;;;7.80;99.90;7.30;101504.00;;;;5039272;28;20222;-67
2022/12/07 11:35:37;;;;;;;2.43;2.03;;;7.80;99.90;7.10;101496.00;;;;5010051;28;20218;-67
2022/12/07 11:38:50;;;;;;;3.20;1.47;;;7.70;99.90;7.20;101495.00;;;;5044966;28;20202;-66
2022/12/07 11:41:54;;;;;;;2.23;1.53;;;7.70;99.90;7.20;101489.00;;;;5026251;28;20714;-66
2022/12/07 11:44:51;;;;;;;1.33;1.00;;;7.90;99.90;7.20;101435.00;;;;4995197;28;20204;-67
2022/12/07 11:47:54;;;;;;;1.80;0.73;;;7.90;99.90;6.80;101485.00;;;;5013423;28;20192;-67
2022/12/07 11:54:40;;;;;;;0.80;0.80;;;7.60;99.90;7.30;101481.00;;;;5032324;28;20199;-67
2022/12/07 11:57:28;;;;;;;1.60;1.50;;;7.90;99.90;7.50;101480.00;;;;5013617;28;20183;-67
2022/12/07 12:00:17;;;;;;;0.20;0.20;;;8.10;99.90;8.60;101483.00;;;;5016499;28;20195;-67
2022/12/07 12:03:40;;;;;;;2.03;1.57;;;8.70;99.90;7.80;101474.00;;;;5033036;28;20210;-67
2022/12/07 12:06:15;;;;;;;1.10;1.00;;;8.50;99.90;8.20;101468.00;;;;5033064;28;20199;-67
2022/12/07 12:09:06;;;;;;;0.30;0.30;;;8.60;99.90;8.60;101464.00;;;;5034001;28;20184;-67
2022/12/07 12:12:00;;;;;;;0.63;0.63;;;8.70;99.90;8.50;101460.00;;;;5037102;28;20204;-67
2022/12/07 12:14:43;;;;;;;0.30;0.30;;;8.70;99.90;8.90;101461.00;;;;5034462;28;20232;-67
2022/12/07 12:17:48;;;;;;;0.30;0.30;;;9.00;99.90;8.80;101466.00;;;;5032216;28;20191;-67
2022/12/07 12:20:56;;;;;;;0.50;0.50;;;9.10;99.90;8.50;101453.00;;;;5027251;28;20551;-67
2022/12/07 12:24:11;;;;;;;1.43;1.37;;;8.80;99.90;7.20;101447.00;;;;5029237;28;20638;-67
2022/12/07 12:26:55;;;;;;;1.43;1.33;;;8.30;99.90;6.80;101448.00;;;;5022331;28;20646;-67
2022/12/07 12:29:42;;;;;;;0.40;0.40;;;7.90;99.90;7.10;101384.00;;;;5030199;28;20192;-67
2022/12/07 12:32:36;;;;;;;1.43;1.20;;;7.70;99.90;7.30;101441.00;;;;5030841;28;20313;-67
2022/12/07 12:35:26;;;;;;;0.73;0.73;;;7.80;99.90;7.70;101436.00;;;;5033534;28;20669;-67
2022/12/07 12:37:55;;;;;;;0.20;0.20;;;8.00;99.90;7.00;101429.00;;;;5040861;28;20203;-67
2022/12/07 12:40:21;;;;;;;1.13;0.80;;;7.80;99.90;7.60;101429.00;;;;5033347;28;20190;-67
2022/12/07 12:43:40;;;;;;;0.80;0.80;;;7.90;99.90;7.30;101427.00;;;;5034477;28;20262;-72
2022/12/07 12:53:31;;;;;;;1.17;0.77;;;8.70;99.90;7.60;101446.00;;;;5044359;28;20190;-68